createdAt,value
2024-02-26T00:01:55.671Z,100151.56
2024-02-26T00:04:22.992Z,100157.59
2024-02-26T00:06:52.491Z,100163.28
2024-02-26T00:09:19.252Z,100161.69
2024-02-26T00:11:45.805Z,100163.72
2024-02-26T00:14:12.328Z,100160.75
2024-02-26T00:16:42.152Z,100162.00
2024-02-26T00:19:09.078Z,100162.00
2024-02-26T00:21:35.726Z,100168.75
2024-02-26T00:24:02.291Z,100173.41
2024-02-26T00:26:28.810Z,100175.22
2024-02-26T00:28:55.327Z,100177.06
2024-02-26T00:31:21.881Z,100169.66
2024-02-26T00:33:48.513Z,100171.69
2024-02-26T00:36:15.180Z,100168.50
2024-02-26T00:38:42.167Z,100165.31
2024-02-26T00:41:08.734Z,100179.66
2024-02-26T00:43:35.288Z,100169.41
2024-02-26T00:46:01.941Z,100167.81
2024-02-26T00:48:28.668Z,100180.53
2024-02-26T00:50:55.260Z,100166.09
2024-02-26T00:53:21.928Z,100176.78
2024-02-26T00:55:48.448Z,100189.28
2024-02-26T00:58:15.097Z,100182.69
2024-02-26T01:00:41.725Z,100171.44
2024-02-26T01:03:08.397Z,100176.44
2024-02-26T01:05:35.103Z,100173.81
2024-02-26T01:08:01.825Z,100181.66
2024-02-26T01:10:28.416Z,100181.44
2024-02-26T01:12:55.013Z,100173.81
2024-02-26T01:15:24.867Z,100174.03
2024-02-26T01:17:52.295Z,100174.84
2024-02-26T01:20:19.005Z,100170.63
2024-02-26T01:22:45.910Z,100174.50
2024-02-26T01:25:13.600Z,100168.50
2024-02-26T01:27:42.264Z,100174.50
2024-02-26T01:30:09.752Z,100165.06
2024-02-26T01:32:37.474Z,100166.09
2024-02-26T01:35:11.269Z,100170.06
2024-02-26T01:37:38.045Z,100170.84
2024-02-26T01:40:10.983Z,100165.63
2024-02-26T01:42:39.683Z,100164.06
2024-02-26T01:45:08.312Z,100159.84
2024-02-26T01:47:35.175Z,100163.25
2024-02-26T01:50:02.030Z,100171.91
2024-02-26T01:52:28.616Z,100156.75
2024-02-26T01:54:55.237Z,100169.59
2024-02-26T01:57:21.937Z,100164.16
2024-02-26T01:59:48.625Z,100174.16
2024-02-26T02:02:16.461Z,100177.56
2024-02-26T02:04:43.134Z,100179.16
2024-02-26T02:07:09.958Z,100183.16
2024-02-26T02:09:36.975Z,100178.72
2024-02-26T02:12:03.837Z,100193.06
2024-02-26T02:14:30.505Z,100185.78
2024-02-26T02:16:57.035Z,100187.59
2024-02-26T02:19:23.850Z,100189.75
2024-02-26T02:21:50.415Z,100191.59
2024-02-26T02:24:16.969Z,100203.63
2024-02-26T02:26:43.798Z,100195.00
2024-02-26T02:29:10.863Z,100202.84
2024-02-26T02:31:37.617Z,100194.78
2024-02-26T02:34:04.634Z,100197.97
2024-02-26T02:36:31.632Z,100199.56
2024-02-26T02:38:58.225Z,100199.56
2024-02-26T02:41:24.973Z,100205.13
2024-02-26T02:43:51.794Z,100204.34
2024-02-26T02:46:18.546Z,100212.97
2024-02-26T02:48:45.763Z,100216.19
2024-02-26T02:51:12.539Z,100222.19
2024-02-26T02:53:39.111Z,100218.78
2024-02-26T02:56:06.053Z,100219.59
2024-02-26T02:58:33.174Z,100232.44
2024-02-26T03:01:01.367Z,100221.75
2024-02-26T03:03:29.907Z,100230.41
2024-02-26T03:05:56.992Z,100225.97
2024-02-26T03:08:23.591Z,100237.22
2024-02-26T03:10:50.172Z,100243.25
2024-02-26T03:13:16.793Z,100247.69
2024-02-26T03:15:43.505Z,100253.72
2024-02-26T03:18:10.249Z,100254.53
2024-02-26T03:20:38.102Z,100260.78
2024-02-26T03:23:05.045Z,100267.03
2024-02-26T03:25:31.606Z,100265.44
2024-02-26T03:27:58.142Z,100261.22
2024-02-26T03:30:24.767Z,100258.03
2024-02-26T03:32:51.374Z,100271.91
2024-02-26T03:35:17.958Z,100271.34
2024-02-26T03:37:44.513Z,100264.72
2024-02-26T03:40:14.033Z,100270.41
2024-02-26T03:42:40.563Z,100273.03
2024-02-26T03:45:07.621Z,100270.63
2024-02-26T03:47:34.228Z,100269.84
2024-02-26T03:50:00.693Z,100274.50
2024-02-26T03:52:27.213Z,100283.34
2024-02-26T03:54:53.673Z,100282.56
2024-02-26T03:57:20.252Z,100288.00
2024-02-26T03:59:46.871Z,100280.16
2024-02-26T04:02:13.654Z,100283.81
2024-02-26T04:04:40.488Z,100285.41
2024-02-26T04:07:07.246Z,100266.06
2024-02-26T04:09:34.294Z,100271.53
2024-02-26T04:12:01.088Z,100285.41
2024-02-26T04:14:27.629Z,100288.00
2024-02-26T04:16:55.644Z,100293.81
2024-02-26T04:19:22.523Z,100292.22
2024-02-26T04:21:49.317Z,100289.84
2024-02-26T04:24:15.933Z,100296.66
2024-02-26T04:26:42.632Z,100302.69
2024-02-26T04:29:09.239Z,100296.66
2024-02-26T04:31:35.978Z,100299.06
2024-02-26T04:34:02.666Z,100305.31
2024-02-26T04:36:29.282Z,100311.13
2024-02-26T04:38:56.961Z,100310.09
2024-02-26T04:41:23.685Z,100310.31
2024-02-26T04:43:50.228Z,100315.53
2024-02-26T04:46:16.739Z,100304.88
2024-02-26T04:48:43.524Z,100314.53
2024-02-26T04:51:10.187Z,100307.47
2024-02-26T04:53:36.851Z,100316.91
2024-02-26T04:56:03.624Z,100316.91
2024-02-26T04:58:30.152Z,100318.53
2024-02-26T05:00:57.091Z,100317.94
2024-02-26T05:03:24.008Z,100321.34
2024-02-26T05:05:50.806Z,100324.78
2024-02-26T05:08:17.402Z,100336.03
2024-02-26T05:10:46.841Z,100328.19
2024-02-26T05:13:15.612Z,100336.03
2024-02-26T05:15:42.244Z,100344.09
2024-02-26T05:18:09.190Z,100340.34
2024-02-26T05:20:37.182Z,100332.03
2024-02-26T05:23:04.861Z,100338.28
2024-02-26T05:25:31.979Z,100336.47
2024-02-26T05:27:58.547Z,100335.91
2024-02-26T05:30:25.137Z,100337.72
2024-02-26T05:32:51.819Z,100345.56
2024-02-26T05:35:19.531Z,100357.63
2024-02-26T05:37:46.143Z,100351.59
2024-02-26T05:40:13.283Z,100347.38
2024-02-26T05:42:39.777Z,100345.56
2024-02-26T05:45:07.698Z,100343.75
2024-02-26T05:47:35.191Z,100356.25
2024-02-26T05:50:02.760Z,100363.50
2024-02-26T05:52:32.795Z,100359.09
2024-02-26T05:54:59.382Z,100370.34
2024-02-26T05:57:25.946Z,100365.34
2024-02-26T05:59:52.544Z,100366.13
2024-02-26T06:02:19.134Z,100373.75
2024-02-26T06:04:45.698Z,100380.59
2024-02-26T06:07:12.320Z,100376.16
2024-02-26T06:09:38.810Z,100377.75
2024-02-26T06:12:05.610Z,100377.53
2024-02-26T06:14:32.098Z,100393.22
2024-02-26T06:16:58.636Z,100381.16
2024-02-26T06:19:25.213Z,100388.00
2024-02-26T06:21:52.183Z,100401.06
2024-02-26T06:24:18.836Z,100422.59
2024-02-26T06:26:45.537Z,100401.22
2024-02-26T06:29:12.111Z,100405.66
2024-02-26T06:31:38.766Z,100399.19
2024-02-26T06:34:05.938Z,100422.94
2024-02-26T06:36:33.568Z,100402.81
2024-02-26T06:39:00.389Z,100424.53
2024-02-26T06:41:28.774Z,100416.47
2024-02-26T06:43:56.008Z,100426.94
2024-02-26T06:46:23.219Z,100432.19
2024-02-26T06:48:53.146Z,100426.38
2024-02-26T06:51:21.820Z,100426.38
2024-02-26T06:53:48.981Z,100446.28
2024-02-26T06:56:15.560Z,100447.06
2024-02-26T06:58:42.589Z,100440.03
2024-02-26T07:01:11.906Z,100445.03
2024-02-26T07:03:38.641Z,100441.84
2024-02-26T07:06:05.834Z,100450.50
2024-02-26T07:08:32.414Z,100449.47
2024-02-26T07:10:58.919Z,100449.25
2024-02-26T07:13:25.486Z,100457.91
2024-02-26T07:15:52.346Z,100484.06
2024-02-26T07:18:19.285Z,100466.34
2024-02-26T07:20:45.947Z,100473.38
2024-02-26T07:23:13.901Z,100480.44
2024-02-26T07:25:40.969Z,100486.25
2024-02-26T07:28:07.753Z,100499.34
2024-02-26T07:30:34.327Z,100482.28
2024-02-26T07:33:00.958Z,100477.53
2024-02-26T07:35:28.642Z,100474.34
2024-02-26T07:37:55.156Z,100499.47
2024-02-26T07:40:21.790Z,100485.59
2024-02-26T07:42:48.422Z,100490.84
2024-02-26T07:45:16.718Z,100511.75
2024-02-26T07:47:44.615Z,100490.63
2024-02-26T07:50:13.021Z,100487.19
2024-02-26T07:52:40.321Z,100512.56
2024-02-26T07:55:08.150Z,100503.69
2024-02-26T07:57:35.040Z,100514.16
2024-02-26T08:00:02.403Z,100519.19
2024-02-26T08:02:29.313Z,100527.03
2024-02-26T08:04:55.781Z,100520.19
2024-02-26T08:07:22.540Z,100522.81
2024-02-26T08:09:49.220Z,100533.03
2024-02-26T08:12:15.806Z,100533.63
2024-02-26T08:14:42.521Z,100529.97
2024-02-26T08:17:09.660Z,100543.88
2024-02-26T08:19:36.993Z,100547.28
2024-02-26T08:22:05.149Z,100549.69
2024-02-26T08:24:32.173Z,100547.06
2024-02-26T08:26:58.823Z,100553.53
2024-02-26T08:29:25.509Z,100556.94
2024-02-26T08:31:52.045Z,100552.75
2024-02-26T08:34:18.696Z,100552.53
2024-02-26T08:36:45.752Z,100581.31
2024-02-26T08:39:14.929Z,100566.41
2024-02-26T08:41:41.684Z,100559.94
2024-02-26T08:44:08.202Z,100563.56
2024-02-26T08:46:34.757Z,100570.03
2024-02-26T08:49:01.467Z,100573.47
2024-02-26T08:51:28.246Z,100574.25
2024-02-26T08:53:55.195Z,100575.28
2024-02-26T08:56:22.747Z,100582.31
2024-02-26T08:58:50.167Z,100581.75
2024-02-26T09:01:17.397Z,100589.59
2024-02-26T09:03:44.369Z,100592.44
2024-02-26T09:06:12.951Z,100594.28
2024-02-26T09:08:39.484Z,100595.50
2024-02-26T09:11:06.208Z,100604.16
2024-02-26T09:13:32.814Z,100598.75
2024-02-26T09:16:00.500Z,100608.66
2024-02-26T09:18:27.411Z,100604.44
2024-02-26T09:20:54.097Z,100598.59
2024-02-26T09:23:20.602Z,100609.06
2024-02-26T09:25:47.102Z,100626.38
2024-02-26T09:28:13.669Z,100621.56
2024-02-26T09:30:40.214Z,100616.56
2024-02-26T09:33:06.865Z,100614.53
2024-02-26T09:35:33.433Z,100623.59
2024-02-26T09:38:00.045Z,100632.25
2024-02-26T09:40:26.650Z,100627.81
2024-02-26T09:43:00.068Z,100639.88
2024-02-26T09:45:29.030Z,100645.13
2024-02-26T09:47:57.550Z,100644.91
2024-02-26T09:50:24.815Z,100644.91
2024-02-26T09:52:53.920Z,100652.97
2024-02-26T09:55:20.810Z,100651.38
2024-02-26T09:57:47.950Z,100649.97
2024-02-26T10:00:19.309Z,100654.41
2024-02-26T10:02:49.749Z,100674.75
2024-02-26T10:05:20.411Z,100666.91
2024-02-26T10:07:47.614Z,100671.91
2024-02-26T10:10:18.948Z,100679.56
2024-02-26T10:12:45.608Z,100667.69
2024-02-26T10:15:12.227Z,100671.31
2024-02-26T10:17:40.120Z,100677.16
2024-02-26T10:20:17.915Z,100688.41
2024-02-26T10:22:45.793Z,100677.56
2024-02-26T10:25:12.425Z,100700.09
2024-02-26T10:27:39.253Z,100698.72
2024-02-26T10:30:19.181Z,100696.09
2024-02-26T10:32:47.958Z,100709.97
2024-02-26T10:35:16.448Z,100705.97
2024-02-26T10:37:43.340Z,100703.16
2024-02-26T10:40:14.349Z,100710.34
2024-02-26T10:42:42.445Z,100726.47
2024-02-26T10:45:10.916Z,100725.69
2024-02-26T10:47:38.048Z,100731.91
2024-02-26T10:50:06.758Z,100738.53
2024-02-26T10:52:35.697Z,100733.91
2024-02-26T10:55:08.455Z,100743.34
2024-02-26T10:57:41.959Z,100738.94
2024-02-26T11:00:13.904Z,100764.88
2024-02-26T11:02:41.892Z,100754.00
2024-02-26T11:05:09.357Z,100757.78
2024-02-26T11:07:37.603Z,100762.00
2024-02-26T11:10:07.544Z,100761.81
2024-02-26T11:12:38.106Z,100778.69
2024-02-26T11:15:05.595Z,100764.22
2024-02-26T11:17:33.574Z,100771.84
2024-02-26T11:20:01.019Z,100776.88
2024-02-26T11:22:28.078Z,100782.69
2024-02-26T11:24:56.578Z,100786.31
2024-02-26T11:27:31.573Z,100782.69
2024-02-26T11:30:01.562Z,100785.31
2024-02-26T11:32:31.291Z,100788.94
2024-02-26T11:34:59.752Z,100790.75
2024-02-26T11:37:27.075Z,100802.03
2024-02-26T11:39:54.236Z,100802.44
2024-02-26T11:42:26.369Z,100793.00
2024-02-26T11:44:53.361Z,100794.59
2024-02-26T11:47:22.364Z,100798.81
2024-02-26T11:49:49.897Z,100804.84
2024-02-26T11:52:17.327Z,100803.84
2024-02-26T11:54:54.706Z,100812.50
2024-02-26T11:57:41.252Z,100817.72
2024-02-26T12:00:07.888Z,100819.09
2024-02-26T12:02:44.253Z,100809.22
2024-02-26T12:05:13.614Z,100825.09
2024-02-26T12:07:46.561Z,100826.50
2024-02-26T12:10:21.881Z,100829.53
2024-02-26T12:12:48.609Z,100827.34
2024-02-26T12:15:16.653Z,100835.78
2024-02-26T12:17:49.582Z,100836.38
2024-02-26T12:20:18.338Z,100834.13
2024-02-26T12:22:48.403Z,100835.53
2024-02-26T12:25:15.552Z,100854.22
2024-02-26T12:27:42.514Z,100849.41
2024-02-26T12:30:09.824Z,100845.56
2024-02-26T12:32:37.207Z,100868.34
2024-02-26T12:35:04.065Z,100858.66
2024-02-26T12:37:30.816Z,100862.31
2024-02-26T12:39:57.674Z,100857.88
2024-02-26T12:42:24.525Z,100850.22
2024-02-26T12:44:51.438Z,100865.31
2024-02-26T12:47:19.574Z,100863.91
2024-02-26T12:49:48.842Z,100869.13
2024-02-26T12:52:17.343Z,100874.16
2024-02-26T12:54:45.371Z,100877.16
2024-02-26T12:57:12.489Z,100871.94
2024-02-26T12:59:40.013Z,100882.41
2024-02-26T13:02:08.550Z,100885.63
2024-02-26T13:04:36.068Z,100884.19
2024-02-26T13:07:06.143Z,100886.16
2024-02-26T13:09:37.242Z,100888.56
2024-02-26T13:12:08.772Z,100896.44
2024-02-26T13:14:36.010Z,100899.25
2024-02-26T13:17:03.487Z,100901.88
2024-02-26T13:19:30.232Z,100904.09
2024-02-26T13:21:57.046Z,100913.72
2024-02-26T13:24:23.820Z,100906.44
2024-02-26T13:26:56.535Z,100915.09
2024-02-26T13:29:23.487Z,100906.25
2024-02-26T13:31:55.065Z,100913.88
2024-02-26T13:34:26.893Z,100917.09
2024-02-26T13:36:57.562Z,100925.75
2024-02-26T13:39:29.305Z,100920.72
2024-02-26T13:41:56.399Z,100923.34
2024-02-26T13:44:23.628Z,100922.94
2024-02-26T13:46:53.041Z,100929.78
2024-02-26T13:49:19.880Z,100928.56
2024-02-26T13:51:46.555Z,100940.03
2024-02-26T13:54:15.181Z,100932.19
2024-02-26T13:56:42.643Z,100932.78
2024-02-26T13:59:10.177Z,100936.78
2024-02-26T14:01:36.776Z,100942.41
2024-02-26T14:04:04.196Z,100950.66
2024-02-26T14:06:32.358Z,100948.97
2024-02-26T14:09:00.021Z,100955.41
2024-02-26T14:11:26.780Z,100950.53
2024-02-26T14:13:53.524Z,100963.00
2024-02-26T14:16:21.548Z,100964.19
2024-02-26T14:18:48.389Z,100967.59
2024-02-26T14:21:15.250Z,100971.03
2024-02-26T14:23:43.705Z,100973.66
2024-02-26T14:26:10.620Z,100976.66
2024-02-26T14:28:37.280Z,100968.59
2024-02-26T14:31:05.493Z,100983.28
2024-02-26T14:33:32.351Z,100979.50
2024-02-26T14:35:59.165Z,100987.72
2024-02-26T14:38:25.688Z,100996.81
2024-02-26T14:40:52.217Z,101000.03
2024-02-26T14:43:18.720Z,101013.13
2024-02-26T14:45:45.385Z,101007.31
2024-02-26T14:48:12.792Z,101013.56
2024-02-26T14:50:39.636Z,101015.75
2024-02-26T14:53:06.271Z,101024.81
2024-02-26T14:55:33.566Z,101026.41
2024-02-26T14:58:00.169Z,101047.59
2024-02-26T15:00:26.896Z,101038.34
2024-02-26T15:02:55.835Z,101039.53
2024-02-26T15:05:22.622Z,101036.31
2024-02-26T15:07:49.534Z,101045.78
2024-02-26T15:10:16.322Z,101044.97
2024-02-26T15:12:43.043Z,101051.22
2024-02-26T15:15:09.907Z,101042.56
2024-02-26T15:17:37.398Z,101064.13
2024-02-26T15:20:05.027Z,101053.66
2024-02-26T15:22:31.745Z,101063.31
2024-02-26T15:24:58.572Z,101063.31
2024-02-26T15:27:25.453Z,101056.25
2024-02-26T15:29:59.180Z,101061.50
2024-02-26T15:32:25.796Z,101072.59
2024-02-26T15:34:52.516Z,101081.47
2024-02-26T15:37:20.093Z,101077.84
2024-02-26T15:39:47.164Z,101083.66
2024-02-26T15:42:13.898Z,101094.38
2024-02-26T15:44:41.007Z,101087.09
2024-02-26T15:47:08.213Z,101107.25
2024-02-26T15:49:35.273Z,101097.59
2024-02-26T15:52:01.957Z,101106.66
2024-02-26T15:54:28.468Z,101112.34
2024-02-26T15:56:55.328Z,101107.28
2024-02-26T15:59:21.937Z,101122.22
2024-02-26T16:01:48.760Z,101120.63
2024-02-26T16:04:16.049Z,101122.63
2024-02-26T16:06:46.631Z,101117.00
2024-02-26T16:09:13.209Z,101134.75
2024-02-26T16:11:39.895Z,101143.63
2024-02-26T16:14:37.796Z,101144.84
2024-02-26T16:17:32.770Z,101147.69
2024-02-26T16:20:00.712Z,101169.44
2024-02-26T16:22:28.576Z,101162.22
2024-02-26T16:24:55.064Z,101182.78
2024-02-26T16:27:21.639Z,101174.75
2024-02-26T16:29:48.769Z,101182.44
2024-02-26T16:32:15.284Z,101181.44
2024-02-26T16:34:42.388Z,101192.53
2024-02-26T16:37:13.032Z,101196.56
2024-02-26T16:39:40.793Z,101200.00
2024-02-26T16:42:11.576Z,101199.41
2024-02-26T16:44:39.941Z,101208.47
2024-02-26T16:47:07.266Z,101205.66
2024-02-26T16:49:35.195Z,101209.47
2024-02-26T16:52:02.028Z,101212.69
2024-02-26T16:54:28.785Z,101227.22
2024-02-26T16:56:55.884Z,101223.59
2024-02-26T16:59:22.459Z,101217.13
2024-02-26T17:01:50.217Z,101222.78
2024-02-26T17:04:16.937Z,101229.22
2024-02-26T17:06:43.578Z,101257.41
2024-02-26T17:09:10.781Z,101235.88
2024-02-26T17:11:39.266Z,101240.50
2024-02-26T17:14:06.280Z,101249.75
2024-02-26T17:16:32.964Z,101246.53
2024-02-26T17:19:00.023Z,101254.81
2024-02-26T17:21:26.940Z,101262.06
2024-02-26T17:23:53.597Z,101268.91
2024-02-26T17:26:21.327Z,101285.59
2024-02-26T17:28:48.150Z,101280.38
2024-02-26T17:31:16.050Z,101282.19
2024-02-26T17:33:42.970Z,101292.84
2024-02-26T17:36:09.704Z,101304.31
2024-02-26T17:38:37.188Z,101290.84
2024-02-26T17:41:04.484Z,101304.91
2024-02-26T17:43:31.018Z,101304.50
2024-02-26T17:45:57.510Z,101307.13
2024-02-26T17:48:25.366Z,101310.53
2024-02-26T17:50:54.505Z,101310.75
2024-02-26T17:53:23.086Z,101323.22
2024-02-26T17:55:53.003Z,101328.44
2024-02-26T17:58:20.333Z,101327.03
2024-02-26T18:00:50.316Z,101336.47
2024-02-26T18:03:20.150Z,101347.13
2024-02-26T18:05:46.749Z,101348.53
2024-02-26T18:08:13.441Z,101350.75
2024-02-26T18:10:39.958Z,101357.00
2024-02-26T18:13:06.583Z,101354.16
2024-02-26T18:15:33.594Z,101371.84
2024-02-26T18:18:00.449Z,101383.31
2024-02-26T18:20:27.067Z,101380.06
2024-02-26T18:22:53.603Z,101378.84
2024-02-26T18:25:20.131Z,101377.63
2024-02-26T18:27:47.274Z,101380.03
2024-02-26T18:30:13.954Z,101379.44
2024-02-26T18:32:40.536Z,101386.47
2024-02-26T18:35:07.594Z,101400.53
2024-02-26T18:37:34.240Z,101395.31
2024-02-26T18:40:00.746Z,101409.56
2024-02-26T18:42:30.185Z,101412.19
2024-02-26T18:44:58.031Z,101415.00
2024-02-26T18:47:24.662Z,101428.25
2024-02-26T18:49:51.241Z,101451.00
2024-02-26T18:52:18.344Z,101428.25
2024-02-26T18:54:45.126Z,101430.06
2024-02-26T18:57:11.908Z,101441.53
2024-02-26T18:59:38.678Z,101451.38
2024-02-26T19:02:05.543Z,101458.22
2024-02-26T19:04:32.542Z,101455.59
2024-02-26T19:06:59.079Z,101460.22
2024-02-26T19:09:25.616Z,101459.22
2024-02-26T19:11:53.963Z,101472.09
2024-02-26T19:14:20.528Z,101471.91
2024-02-26T19:16:47.119Z,101481.38
2024-02-26T19:19:14.872Z,101491.84
2024-02-26T19:21:42.337Z,101499.06
2024-02-26T19:24:09.084Z,101502.47
2024-02-26T19:26:35.738Z,101499.44
2024-02-26T19:29:06.020Z,101511.88
2024-02-26T19:31:34.839Z,101510.88
2024-02-26T19:34:02.372Z,101520.53
2024-02-26T19:36:29.168Z,101518.16
2024-02-26T19:38:55.745Z,101523.75
2024-02-26T19:41:22.439Z,101534.41
2024-02-26T19:43:49.021Z,101528.16
2024-02-26T19:46:16.598Z,101527.97
2024-02-26T19:48:43.319Z,101531.59
2024-02-26T19:51:16.907Z,101534.03
2024-02-26T19:53:43.622Z,101547.28
2024-02-26T19:56:10.186Z,101542.25
2024-02-26T19:58:36.719Z,101548.09
2024-02-26T20:01:03.886Z,101552.50
2024-02-26T20:03:30.619Z,101561.34
2024-02-26T20:05:57.267Z,101559.72
2024-02-26T20:08:23.796Z,101568.56
2024-02-26T20:10:52.331Z,101573.81
2024-02-26T20:13:19.905Z,101588.31
2024-02-26T20:15:48.152Z,101579.66
2024-02-26T20:18:14.786Z,101587.69
2024-02-26T20:20:41.380Z,101595.91
2024-02-26T20:23:07.894Z,101610.16
2024-02-26T20:25:36.325Z,101602.69
2024-02-26T20:28:02.987Z,101601.25
2024-02-26T20:30:30.668Z,101617.13
2024-02-26T20:32:57.321Z,101624.50
2024-02-26T20:35:24.002Z,101623.06
2024-02-26T20:37:50.519Z,101612.19
2024-02-26T20:40:21.024Z,101615.59
2024-02-26T20:42:48.635Z,101623.44
2024-02-26T20:45:18.317Z,101621.81
2024-02-26T20:47:45.346Z,101626.06
2024-02-26T20:50:12.164Z,101629.66
2024-02-26T20:52:38.680Z,101621.19
2024-02-26T20:55:05.931Z,101642.91
2024-02-26T20:57:32.943Z,101642.72
2024-02-26T20:59:59.512Z,101643.53
2024-02-26T21:02:29.958Z,101653.00
2024-02-26T21:05:01.405Z,101649.22
2024-02-26T21:07:28.052Z,101651.19
2024-02-26T21:09:55.495Z,101652.81
2024-02-26T21:12:22.832Z,101665.88
2024-02-26T21:14:49.372Z,101671.13
2024-02-26T21:17:15.926Z,101675.16
2024-02-26T21:19:42.598Z,101676.78
2024-02-26T21:22:09.831Z,101679.41
2024-02-26T21:24:36.586Z,101685.44
2024-02-26T21:27:03.330Z,101684.63
2024-02-26T21:29:29.834Z,101676.97
2024-02-26T21:31:57.334Z,101684.81
2024-02-26T21:34:24.083Z,101684.81
2024-02-26T21:36:50.720Z,101684.00
2024-02-26T21:39:17.311Z,101694.47
2024-02-26T21:41:43.949Z,101692.28
2024-02-26T21:44:10.457Z,101695.91
2024-02-26T21:46:44.458Z,101699.50
2024-02-26T21:49:11.543Z,101699.06
2024-02-26T21:51:46.628Z,101701.50
2024-02-26T21:54:14.038Z,101700.06
2024-02-26T21:56:44.996Z,101707.72
2024-02-26T21:59:11.774Z,101713.56
2024-02-26T22:01:38.374Z,101707.72
2024-02-26T22:04:05.174Z,101717.97
2024-02-26T22:06:33.031Z,101728.44
2024-02-26T22:08:59.812Z,101730.88
2024-02-26T22:11:26.513Z,101728.44
2024-02-26T22:13:53.653Z,101725.81
2024-02-26T22:16:21.773Z,101726.63
2024-02-26T22:18:48.521Z,101728.63
2024-02-26T22:21:15.456Z,101728.78
2024-02-26T22:23:42.037Z,101733.22
2024-02-26T22:26:10.162Z,101730.78
2024-02-26T22:28:37.316Z,101738.00
2024-02-26T22:31:05.522Z,101734.75
2024-02-26T22:33:32.613Z,101739.56
2024-02-26T22:35:59.358Z,101742.34
2024-02-26T22:38:25.897Z,101747.13
2024-02-26T22:40:52.412Z,101758.56
2024-02-26T22:43:19.036Z,101759.09
2024-02-26T22:45:46.047Z,101763.06
2024-02-26T22:48:13.038Z,101759.19
2024-02-26T22:50:39.841Z,101753.34
2024-02-26T22:53:06.710Z,101761.53
2024-02-26T22:55:33.310Z,101762.69
2024-02-26T22:57:59.775Z,101772.50
2024-02-26T23:00:32.841Z,101771.28
2024-02-26T23:03:00.670Z,101771.63
2024-02-26T23:05:28.518Z,101769.00
2024-02-26T23:07:56.195Z,101768.38
2024-02-26T23:10:23.404Z,101761.91
2024-02-26T23:12:50.302Z,101773.78
2024-02-26T23:15:17.158Z,101763.34
2024-02-26T23:17:43.976Z,101780.16
2024-02-26T23:20:11.781Z,101780.00
2024-02-26T23:22:45.308Z,101780.81
2024-02-26T23:25:13.502Z,101800.88
2024-02-26T23:27:42.236Z,101790.44
2024-02-26T23:30:09.432Z,101801.06
2024-02-26T23:32:36.385Z,101787.00
2024-02-26T23:35:03.104Z,101782.44
2024-02-26T23:37:29.835Z,101791.25
2024-02-26T23:39:56.393Z,101784.41
2024-02-26T23:42:23.372Z,101789.97
2024-02-26T23:44:49.996Z,101792.94
2024-02-26T23:47:16.785Z,101796.38
2024-02-26T23:49:43.321Z,101797.53
2024-02-26T23:52:10.837Z,101803.09
2024-02-26T23:54:37.750Z,101790.06
2024-02-26T23:57:04.686Z,101793.81
2024-02-26T23:59:31.214Z,101792.56
